sensor_id;sensor_type;location;lat;lon;timestamp;pressure;altitude;pressure_sealevel;temperature;humidity
30730;BME280;17476;48.458;7.928;2022-07-03T00:01:24;100095.41;;;20.69;68.31
30730;BME280;17476;48.458;7.928;2022-07-03T00:03:51;100099.09;;;20.68;68.09
30730;BME280;17476;48.458;7.928;2022-07-03T00:06:17;100106.03;;;20.69;67.73
30730;BME280;17476;48.458;7.928;2022-07-03T00:08:46;100093.97;;;20.55;67.81
30730;BME280;17476;48.458;7.928;2022-07-03T00:11:13;100104.84;;;20.54;68.11
30730;BME280;17476;48.458;7.928;2022-07-03T00:13:39;100105.25;;;20.51;68.34
30730;BME280;17476;48.458;7.928;2022-07-03T00:16:05;100105.03;;;20.52;68.27
30730;BME280;17476;48.458;7.928;2022-07-03T00:18:30;100111.66;;;20.43;68.71
30730;BME280;17476;48.458;7.928;2022-07-03T00:21:05;100108.44;;;20.41;69.24
30730;BME280;17476;48.458;7.928;2022-07-03T00:26:41;100112.34;;;20.38;68.69
30730;BME280;17476;48.458;7.928;2022-07-03T00:29:09;100124.06;;;20.31;68.93
30730;BME280;17476;48.458;7.928;2022-07-03T00:31:35;100117.16;;;20.30;69.13
30730;BME280;17476;48.458;7.928;2022-07-03T00:34:02;100121.31;;;20.26;69.36
30730;BME280;17476;48.458;7.928;2022-07-03T00:36:36;100126.16;;;20.29;68.73
30730;BME280;17476;48.458;7.928;2022-07-03T00:39:04;100123.72;;;20.09;69.67
30730;BME280;17476;48.458;7.928;2022-07-03T00:41:33;100123.28;;;20.12;69.88
30730;BME280;17476;48.458;7.928;2022-07-03T00:43:59;100120.41;;;20.13;69.30
30730;BME280;17476;48.458;7.928;2022-07-03T00:46:27;100127.25;;;20.03;70.25
30730;BME280;17476;48.458;7.928;2022-07-03T00:48:56;100119.38;;;19.96;70.64
30730;BME280;17476;48.458;7.928;2022-07-03T00:51:26;100110.28;;;20.04;70.59
30730;BME280;17476;48.458;7.928;2022-07-03T00:53:57;100111.84;;;19.93;71.10
30730;BME280;17476;48.458;7.928;2022-07-03T00:56:30;100105.66;;;19.99;70.99
30730;BME280;17476;48.458;7.928;2022-07-03T00:58:59;100111.97;;;19.98;71.02
30730;BME280;17476;48.458;7.928;2022-07-03T01:01:35;100105.81;;;19.86;71.63
30730;BME280;17476;48.458;7.928;2022-07-03T01:12:15;100114.53;;;19.68;72.89
30730;BME280;17476;48.458;7.928;2022-07-03T01:15:10;100116.22;;;19.62;72.85
30730;BME280;17476;48.458;7.928;2022-07-03T01:17:48;100111.66;;;19.70;72.78
30730;BME280;17476;48.458;7.928;2022-07-03T01:20:22;100110.63;;;19.71;72.74
30730;BME280;17476;48.458;7.928;2022-07-03T01:22:58;100105.53;;;19.69;72.80
30730;BME280;17476;48.458;7.928;2022-07-03T01:25:44;100109.56;;;19.78;72.25
30730;BME280;17476;48.458;7.928;2022-07-03T01:28:18;100102.09;;;19.69;72.07
30730;BME280;17476;48.458;7.928;2022-07-03T01:30:54;100110.56;;;19.59;72.51
30730;BME280;17476;48.458;7.928;2022-07-03T01:33:26;100103.50;;;19.46;73.43
30730;BME280;17476;48.458;7.928;2022-07-03T01:36:13;100108.63;;;19.41;73.81
30730;BME280;17476;48.458;7.928;2022-07-03T01:38:41;100102.91;;;19.44;74.06
30730;BME280;17476;48.458;7.928;2022-07-03T01:41:12;100087.84;;;19.38;73.97
30730;BME280;17476;48.458;7.928;2022-07-03T01:43:49;100096.56;;;19.45;73.41
30730;BME280;17476;48.458;7.928;2022-07-03T01:46:21;100092.13;;;19.39;73.53
30730;BME280;17476;48.458;7.928;2022-07-03T01:48:54;100087.47;;;19.34;74.50
30730;BME280;17476;48.458;7.928;2022-07-03T01:51:21;100090.94;;;19.35;74.07
30730;BME280;17476;48.458;7.928;2022-07-03T01:53:50;100092.25;;;19.26;74.60
30730;BME280;17476;48.458;7.928;2022-07-03T01:56:18;100094.88;;;19.26;74.48
30730;BME280;17476;48.458;7.928;2022-07-03T01:58:45;100100.59;;;19.23;74.87
30730;BME280;17476;48.458;7.928;2022-07-03T02:01:31;100099.00;;;19.22;74.94
30730;BME280;17476;48.458;7.928;2022-07-03T02:07:46;100100.28;;;19.13;74.96
30730;BME280;17476;48.458;7.928;2022-07-03T02:10:16;100097.81;;;19.18;74.83
30730;BME280;17476;48.458;7.928;2022-07-03T02:12:54;100108.50;;;19.29;74.43
30730;BME280;17476;48.458;7.928;2022-07-03T02:15:34;100101.69;;;19.15;74.71
30730;BME280;17476;48.458;7.928;2022-07-03T02:18:07;100103.13;;;19.18;75.04
30730;BME280;17476;48.458;7.928;2022-07-03T02:20:39;100100.72;;;19.09;75.25
30730;BME280;17476;48.458;7.928;2022-07-03T02:23:10;100100.38;;;18.99;75.45
30730;BME280;17476;48.458;7.928;2022-07-03T02:25:41;100100.66;;;18.91;75.64
30730;BME280;17476;48.458;7.928;2022-07-03T02:28:35;100106.00;;;18.85;76.29
30730;BME280;17476;48.458;7.928;2022-07-03T02:31:08;100105.19;;;18.84;76.17
30730;BME280;17476;48.458;7.928;2022-07-03T02:33:38;100112.50;;;18.82;76.24
30730;BME280;17476;48.458;7.928;2022-07-03T02:36:10;100112.50;;;18.82;76.43
30730;BME280;17476;48.458;7.928;2022-07-03T02:38:37;100108.06;;;18.76;76.44
30730;BME280;17476;48.458;7.928;2022-07-03T02:41:17;100111.56;;;18.76;76.66
30730;BME280;17476;48.458;7.928;2022-07-03T02:55:42;100109.94;;;18.69;76.85
30730;BME280;17476;48.458;7.928;2022-07-03T02:58:53;100114.38;;;18.75;76.34
30730;BME280;17476;48.458;7.928;2022-07-03T03:04:30;100114.47;;;18.55;77.01
30730;BME280;17476;48.458;7.928;2022-07-03T03:07:13;100113.66;;;18.54;77.46
30730;BME280;17476;48.458;7.928;2022-07-03T03:09:45;100117.72;;;18.57;77.12
30730;BME280;17476;48.458;7.928;2022-07-03T03:12:13;100120.16;;;18.59;77.35
30730;BME280;17476;48.458;7.928;2022-07-03T03:14:45;100110.38;;;18.59;77.13
30730;BME280;17476;48.458;7.928;2022-07-03T03:17:18;100111.88;;;18.42;77.83
30730;BME280;17476;48.458;7.928;2022-07-03T03:19:55;100117.56;;;18.45;78.08
30730;BME280;17476;48.458;7.928;2022-07-03T03:25:09;100117.16;;;18.42;77.90
30730;BME280;17476;48.458;7.928;2022-07-03T03:27:35;100121.28;;;18.38;78.18
30730;BME280;17476;48.458;7.928;2022-07-03T03:30:01;100124.56;;;18.26;78.75
30730;BME280;17476;48.458;7.928;2022-07-03T03:32:28;100121.31;;;18.31;78.49
30730;BME280;17476;48.458;7.928;2022-07-03T03:34:54;100129.25;;;18.31;78.37
30730;BME280;17476;48.458;7.928;2022-07-03T03:37:20;100129.84;;;18.33;78.60
30730;BME280;17476;48.458;7.928;2022-07-03T03:39:46;100134.53;;;18.31;78.51
30730;BME280;17476;48.458;7.928;2022-07-03T03:42:12;100135.59;;;18.23;78.65
30730;BME280;17476;48.458;7.928;2022-07-03T03:44:38;100134.75;;;18.30;79.04
30730;BME280;17476;48.458;7.928;2022-07-03T03:47:04;100140.22;;;18.28;78.53
30730;BME280;17476;48.458;7.928;2022-07-03T03:49:30;100143.13;;;18.20;78.94
30730;BME280;17476;48.458;7.928;2022-07-03T03:51:56;100149.88;;;18.16;79.17
30730;BME280;17476;48.458;7.928;2022-07-03T03:54:22;100150.47;;;18.11;79.20
30730;BME280;17476;48.458;7.928;2022-07-03T03:56:48;100154.56;;;17.94;80.03
30730;BME280;17476;48.458;7.928;2022-07-03T03:59:14;100157.22;;;17.81;80.51
30730;BME280;17476;48.458;7.928;2022-07-03T04:01:40;100159.47;;;17.57;81.93
30730;BME280;17476;48.458;7.928;2022-07-03T04:04:06;100165.56;;;17.31;83.40
30730;BME280;17476;48.458;7.928;2022-07-03T04:06:32;100166.16;;;17.33;83.17
30730;BME280;17476;48.458;7.928;2022-07-03T04:09:00;100171.25;;;17.28;83.38
30730;BME280;17476;48.458;7.928;2022-07-03T04:11:26;100173.09;;;17.34;83.36
30730;BME280;17476;48.458;7.928;2022-07-03T04:13:52;100180.59;;;17.31;83.44
30730;BME280;17476;48.458;7.928;2022-07-03T04:16:17;100180.19;;;17.40;82.99
30730;BME280;17476;48.458;7.928;2022-07-03T04:18:43;100172.69;;;17.51;81.87
30730;BME280;17476;48.458;7.928;2022-07-03T04:21:09;100185.91;;;17.64;81.12
30730;BME280;17476;48.458;7.928;2022-07-03T04:23:35;100186.75;;;17.78;80.60
30730;BME280;17476;48.458;7.928;2022-07-03T04:26:07;100187.16;;;17.88;79.88
30730;BME280;17476;48.458;7.928;2022-07-03T04:28:33;100185.13;;;17.90;79.81
30730;BME280;17476;48.458;7.928;2022-07-03T04:30:59;100193.66;;;17.92;79.91
30730;BME280;17476;48.458;7.928;2022-07-03T04:33:25;100187.13;;;18.01;79.11
30730;BME280;17476;48.458;7.928;2022-07-03T04:35:51;100184.31;;;18.03;79.44
30730;BME280;17476;48.458;7.928;2022-07-03T04:38:16;100193.22;;;18.01;79.86
30730;BME280;17476;48.458;7.928;2022-07-03T04:40:42;100185.50;;;18.00;79.36
30730;BME280;17476;48.458;7.928;2022-07-03T04:43:08;100196.09;;;18.00;79.69
30730;BME280;17476;48.458;7.928;2022-07-03T04:45:34;100198.53;;;18.08;79.45
30730;BME280;17476;48.458;7.928;2022-07-03T04:47:59;100195.25;;;18.13;78.60
30730;BME280;17476;48.458;7.928;2022-07-03T04:50:25;100190.16;;;18.18;78.52
30730;BME280;17476;48.458;7.928;2022-07-03T04:52:51;100188.38;;;17.98;79.66
30730;BME280;17476;48.458;7.928;2022-07-03T04:55:17;100194.88;;;18.03;79.71
30730;BME280;17476;48.458;7.928;2022-07-03T04:57:42;100197.50;;;18.16;78.52
30730;BME280;17476;48.458;7.928;2022-07-03T05:00:09;100193.41;;;18.26;78.09
30730;BME280;17476;48.458;7.928;2022-07-03T05:02:35;100186.44;;;18.39;77.80
30730;BME280;17476;48.458;7.928;2022-07-03T05:05:01;100197.63;;;18.47;77.43
30730;BME280;17476;48.458;7.928;2022-07-03T05:07:26;100206.56;;;18.60;77.04
30730;BME280;17476;48.458;7.928;2022-07-03T05:09:52;100198.81;;;18.71;76.09
30730;BME280;17476;48.458;7.928;2022-07-03T05:12:18;100200.41;;;18.79;76.30
30730;BME280;17476;48.458;7.928;2022-07-03T05:14:44;100197.72;;;18.86;76.12
30730;BME280;17476;48.458;7.928;2022-07-03T05:17:09;100196.66;;;18.93;75.95
30730;BME280;17476;48.458;7.928;2022-07-03T05:19:37;100205.03;;;18.90;75.40
30730;BME280;17476;48.458;7.928;2022-07-03T05:22:04;100197.66;;;18.99;75.68
30730;BME280;17476;48.458;7.928;2022-07-03T05:24:29;100196.84;;;18.98;74.61
30730;BME280;17476;48.458;7.928;2022-07-03T05:26:55;100198.00;;;19.09;74.24
30730;BME280;17476;48.458;7.928;2022-07-03T05:29:21;100195.69;;;19.19;74.25
30730;BME280;17476;48.458;7.928;2022-07-03T05:31:47;100197.81;;;19.35;73.53
30730;BME280;17476;48.458;7.928;2022-07-03T05:34:12;100190.03;;;19.41;73.84
30730;BME280;17476;48.458;7.928;2022-07-03T05:36:38;100186.81;;;19.63;72.81
30730;BME280;17476;48.458;7.928;2022-07-03T05:39:04;100190.34;;;19.82;72.00
30730;BME280;17476;48.458;7.928;2022-07-03T05:41:48;100184.13;;;19.95;71.24
30730;BME280;17476;48.458;7.928;2022-07-03T05:44:14;100183.69;;;20.16;69.86
30730;BME280;17476;48.458;7.928;2022-07-03T05:46:39;100185.63;;;20.28;69.42
30730;BME280;17476;48.458;7.928;2022-07-03T05:49:05;100186.53;;;20.40;69.86
30730;BME280;17476;48.458;7.928;2022-07-03T05:51:31;100192.44;;;20.60;68.89
30730;BME280;17476;48.458;7.928;2022-07-03T05:53:57;100189.00;;;20.71;67.96
30730;BME280;17476;48.458;7.928;2022-07-03T05:56:22;100188.94;;;20.78;67.96
30730;BME280;17476;48.458;7.928;2022-07-03T05:58:49;100184.97;;;20.99;67.10
30730;BME280;17476;48.458;7.928;2022-07-03T06:01:14;100194.75;;;21.17;66.81
30730;BME280;17476;48.458;7.928;2022-07-03T06:03:40;100196.34;;;21.36;65.37
30730;BME280;17476;48.458;7.928;2022-07-03T06:06:06;100194.63;;;21.53;65.04
30730;BME280;17476;48.458;7.928;2022-07-03T06:08:32;100190.38;;;21.88;63.64
30730;BME280;17476;48.458;7.928;2022-07-03T06:10:57;100195.25;;;21.91;63.50
30730;BME280;17476;48.458;7.928;2022-07-03T06:13:23;100189.81;;;21.97;63.01
30730;BME280;17476;48.458;7.928;2022-07-03T06:15:49;100193.09;;;22.11;62.75
30730;BME280;17476;48.458;7.928;2022-07-03T06:18:15;100190.97;;;22.37;62.07
30730;BME280;17476;48.458;7.928;2022-07-03T06:20:40;100197.53;;;22.57;61.50
30730;BME280;17476;48.458;7.928;2022-07-03T06:23:06;100190.91;;;22.60;61.01
30730;BME280;17476;48.458;7.928;2022-07-03T06:25:32;100191.13;;;22.70;60.89
30730;BME280;17476;48.458;7.928;2022-07-03T06:27:58;100188.06;;;22.90;58.85
30730;BME280;17476;48.458;7.928;2022-07-03T06:30:23;100191.53;;;22.91;59.12
30730;BME280;17476;48.458;7.928;2022-07-03T06:32:49;100191.16;;;22.99;59.98
30730;BME280;17476;48.458;7.928;2022-07-03T06:35:15;100192.47;;;23.13;58.18
30730;BME280;17476;48.458;7.928;2022-07-03T06:37:41;100182.94;;;23.17;59.36
30730;BME280;17476;48.458;7.928;2022-07-03T06:40:07;100192.41;;;23.41;58.91
30730;BME280;17476;48.458;7.928;2022-07-03T06:42:33;100194.16;;;23.81;55.68
30730;BME280;17476;48.458;7.928;2022-07-03T06:44:59;100202.25;;;23.69;56.40
30730;BME280;17476;48.458;7.928;2022-07-03T06:47:25;100201.44;;;23.86;56.49
30730;BME280;17476;48.458;7.928;2022-07-03T06:49:50;100201.56;;;24.13;55.00
30730;BME280;17476;48.458;7.928;2022-07-03T06:52:16;100200.38;;;24.42;56.83
30730;BME280;17476;48.458;7.928;2022-07-03T06:54:42;100194.44;;;24.84;54.71
30730;BME280;17476;48.458;7.928;2022-07-03T06:57:11;100192.16;;;24.98;53.36
30730;BME280;17476;48.458;7.928;2022-07-03T06:59:37;100194.91;;;25.03;53.77
30730;BME280;17476;48.458;7.928;2022-07-03T07:02:02;100192.88;;;25.42;52.94
30730;BME280;17476;48.458;7.928;2022-07-03T07:04:28;100198.22;;;25.10;51.43
30730;BME280;17476;48.458;7.928;2022-07-03T07:06:54;100192.06;;;24.88;52.21
30730;BME280;17476;48.458;7.928;2022-07-03T07:09:20;100184.56;;;25.12;52.68
30730;BME280;17476;48.458;7.928;2022-07-03T07:11:45;100179.28;;;25.49;50.53
30730;BME280;17476;48.458;7.928;2022-07-03T07:14:11;100179.81;;;25.83;49.91
30730;BME280;17476;48.458;7.928;2022-07-03T07:16:37;100178.09;;;26.09;48.68
30730;BME280;17476;48.458;7.928;2022-07-03T07:19:03;100174.31;;;26.05;48.89
30730;BME280;17476;48.458;7.928;2022-07-03T07:21:28;100179.53;;;26.32;47.77
30730;BME280;17476;48.458;7.928;2022-07-03T07:23:54;100178.47;;;26.33;48.18
30730;BME280;17476;48.458;7.928;2022-07-03T07:26:20;100177.81;;;26.68;46.52
30730;BME280;17476;48.458;7.928;2022-07-03T07:28:46;100179.75;;;26.88;46.81
30730;BME280;17476;48.458;7.928;2022-07-03T07:31:12;100174.72;;;27.22;45.80
30730;BME280;17476;48.458;7.928;2022-07-03T07:33:38;100180.63;;;27.29;44.44
30730;BME280;17476;48.458;7.928;2022-07-03T07:36:04;100169.34;;;27.22;43.68
30730;BME280;17476;48.458;7.928;2022-07-03T07:38:30;100173.38;;;27.35;44.06
30730;BME280;17476;48.458;7.928;2022-07-03T07:40:55;100177.16;;;27.74;43.14
30730;BME280;17476;48.458;7.928;2022-07-03T07:43:21;100170.59;;;28.16;43.47
30730;BME280;17476;48.458;7.928;2022-07-03T07:45:47;100182.97;;;28.33;41.90
30730;BME280;17476;48.458;7.928;2022-07-03T07:48:13;100165.56;;;28.64;40.76
30730;BME280;17476;48.458;7.928;2022-07-03T07:50:39;100170.22;;;29.03;39.54
30730;BME280;17476;48.458;7.928;2022-07-03T07:53:05;100169.47;;;29.26;40.92
30730;BME280;17476;48.458;7.928;2022-07-03T07:55:31;100170.78;;;29.34;39.60
30730;BME280;17476;48.458;7.928;2022-07-03T07:57:56;100172.19;;;29.26;38.22
30730;BME280;17476;48.458;7.928;2022-07-03T08:00:22;100176.72;;;29.65;38.90
30730;BME280;17476;48.458;7.928;2022-07-03T08:02:48;100169.88;;;30.02;37.81
30730;BME280;17476;48.458;7.928;2022-07-03T08:05:32;100173.25;;;29.59;37.58
30730;BME280;17476;48.458;7.928;2022-07-03T08:08:22;100168.94;;;29.63;37.67
30730;BME280;17476;48.458;7.928;2022-07-03T08:10:50;100166.78;;;28.92;37.95
30730;BME280;17476;48.458;7.928;2022-07-03T08:13:18;100162.44;;;29.30;38.63
30730;BME280;17476;48.458;7.928;2022-07-03T08:15:45;100161.22;;;29.52;36.40
30730;BME280;17476;48.458;7.928;2022-07-03T08:18:15;100166.00;;;30.13;36.76
30730;BME280;17476;48.458;7.928;2022-07-03T08:20:41;100156.88;;;30.52;37.33
30730;BME280;17476;48.458;7.928;2022-07-03T08:23:08;100155.22;;;30.75;35.67
30730;BME280;17476;48.458;7.928;2022-07-03T08:25:34;100147.97;;;31.08;34.46
30730;BME280;17476;48.458;7.928;2022-07-03T08:28:00;100155.72;;;30.95;34.44
30730;BME280;17476;48.458;7.928;2022-07-03T08:30:26;100157.88;;;30.80;34.33
30730;BME280;17476;48.458;7.928;2022-07-03T08:32:56;100156.88;;;31.27;34.14
30730;BME280;17476;48.458;7.928;2022-07-03T08:35:23;100150.72;;;31.40;34.05
30730;BME280;17476;48.458;7.928;2022-07-03T08:37:49;100143.78;;;31.34;36.74
30730;BME280;17476;48.458;7.928;2022-07-03T08:40:16;100149.50;;;32.06;36.34
30730;BME280;17476;48.458;7.928;2022-07-03T08:42:48;100151.41;;;32.70;31.41
30730;BME280;17476;48.458;7.928;2022-07-03T08:45:16;100146.66;;;33.11;34.28
30730;BME280;17476;48.458;7.928;2022-07-03T08:47:44;100152.78;;;33.79;32.18
30730;BME280;17476;48.458;7.928;2022-07-03T08:50:12;100144.66;;;34.28;30.20
30730;BME280;17476;48.458;7.928;2022-07-03T08:52:39;100148.59;;;33.96;29.21
30730;BME280;17476;48.458;7.928;2022-07-03T08:55:05;100152.91;;;34.05;31.02
30730;BME280;17476;48.458;7.928;2022-07-03T08:57:32;100149.13;;;34.15;31.93
30730;BME280;17476;48.458;7.928;2022-07-03T09:00:04;100150.00;;;34.59;31.59
30730;BME280;17476;48.458;7.928;2022-07-03T09:02:31;100149.03;;;35.15;30.02
30730;BME280;17476;48.458;7.928;2022-07-03T09:04:59;100146.34;;;35.71;30.80
30730;BME280;17476;48.458;7.928;2022-07-03T09:07:35;100150.28;;;36.20;30.16
30730;BME280;17476;48.458;7.928;2022-07-03T09:10:07;100143.28;;;36.40;29.62
30730;BME280;17476;48.458;7.928;2022-07-03T09:12:33;100144.75;;;36.79;29.10
30730;BME280;17476;48.458;7.928;2022-07-03T09:15:00;100148.19;;;35.88;27.07
30730;BME280;17476;48.458;7.928;2022-07-03T09:17:27;100144.66;;;35.49;28.36
30730;BME280;17476;48.458;7.928;2022-07-03T09:19:54;100141.13;;;35.95;29.13
30730;BME280;17476;48.458;7.928;2022-07-03T09:22:31;100137.41;;;36.71;29.78
30730;BME280;17476;48.458;7.928;2022-07-03T09:25:12;100140.38;;;36.87;27.64
30730;BME280;17476;48.458;7.928;2022-07-03T09:27:50;100143.03;;;36.54;24.81
30730;BME280;17476;48.458;7.928;2022-07-03T09:30:17;100141.97;;;36.88;28.07
30730;BME280;17476;48.458;7.928;2022-07-03T09:32:45;100128.94;;;37.51;28.51
30730;BME280;17476;48.458;7.928;2022-07-03T09:35:26;100135.47;;;37.95;24.91
30730;BME280;17476;48.458;7.928;2022-07-03T09:38:00;100136.63;;;37.82;24.72
30730;BME280;17476;48.458;7.928;2022-07-03T09:40:52;100136.47;;;37.54;23.79
30730;BME280;17476;48.458;7.928;2022-07-03T09:43:23;100138.94;;;36.81;23.19
30730;BME280;17476;48.458;7.928;2022-07-03T09:46:00;100138.19;;;36.59;25.40
30730;BME280;17476;48.458;7.928;2022-07-03T09:48:41;100137.91;;;35.55;23.19
30730;BME280;17476;48.458;7.928;2022-07-03T09:51:24;100130.63;;;35.76;24.68
30730;BME280;17476;48.458;7.928;2022-07-03T09:54:03;100117.78;;;36.36;24.68
30730;BME280;17476;48.458;7.928;2022-07-03T09:56:38;100124.94;;;36.49;25.38
30730;BME280;17476;48.458;7.928;2022-07-03T09:59:13;100122.97;;;36.92;25.15
30730;BME280;17476;48.458;7.928;2022-07-03T10:01:45;100122.66;;;37.26;24.96
30730;BME280;17476;48.458;7.928;2022-07-03T10:04:21;100127.56;;;37.33;24.16
30730;BME280;17476;48.458;7.928;2022-07-03T10:06:59;100124.31;;;37.06;24.43
30730;BME280;17476;48.458;7.928;2022-07-03T10:09:33;100124.00;;;37.32;25.06
30730;BME280;17476;48.458;7.928;2022-07-03T10:12:02;100121.81;;;36.39;23.78
30730;BME280;17476;48.458;7.928;2022-07-03T10:14:31;100118.56;;;35.86;24.24
30730;BME280;17476;48.458;7.928;2022-07-03T10:16:57;100116.97;;;35.47;23.72
30730;BME280;17476;48.458;7.928;2022-07-03T10:19:27;100117.38;;;35.02;25.22
30730;BME280;17476;48.458;7.928;2022-07-03T10:21:57;100114.72;;;35.58;26.18
30730;BME280;17476;48.458;7.928;2022-07-03T10:24:30;100109.47;;;36.41;23.66
30730;BME280;17476;48.458;7.928;2022-07-03T10:26:57;100111.09;;;37.41;26.85
30730;BME280;17476;48.458;7.928;2022-07-03T10:29:27;100105.53;;;37.75;22.36
30730;BME280;17476;48.458;7.928;2022-07-03T10:31:53;100100.53;;;37.40;22.91
30730;BME280;17476;48.458;7.928;2022-07-03T10:34:24;100104.31;;;37.84;23.28
30730;BME280;17476;48.458;7.928;2022-07-03T10:37:02;100100.19;;;37.90;21.53
30730;BME280;17476;48.458;7.928;2022-07-03T10:40:12;100103.22;;;38.66;25.14
30730;BME280;17476;48.458;7.928;2022-07-03T10:43:09;100099.44;;;38.98;23.73
30730;BME280;17476;48.458;7.928;2022-07-03T10:46:17;100099.31;;;39.70;24.64
30730;BME280;17476;48.458;7.928;2022-07-03T10:49:00;100093.31;;;39.65;20.68
30730;BME280;17476;48.458;7.928;2022-07-03T10:51:31;100089.81;;;38.08;22.65
30730;BME280;17476;48.458;7.928;2022-07-03T10:54:22;100092.63;;;38.36;22.01
30730;BME280;17476;48.458;7.928;2022-07-03T11:02:33;100094.72;;;39.27;22.14
30730;BME280;17476;48.458;7.928;2022-07-03T11:07:33;100084.94;;;40.08;23.69
30730;BME280;17476;48.458;7.928;2022-07-03T11:25:53;100065.09;;;40.92;18.51
30730;BME280;17476;48.458;7.928;2022-07-03T11:39:09;100053.00;;;40.97;19.59
30730;BME280;17476;48.458;7.928;2022-07-03T11:44:08;100048.72;;;41.45;22.40
30730;BME280;17476;48.458;7.928;2022-07-03T11:46:36;100046.09;;;41.79;21.72
30730;BME280;17476;48.458;7.928;2022-07-03T11:49:21;100042.38;;;42.24;19.92
30730;BME280;17476;48.458;7.928;2022-07-03T11:52:04;100045.66;;;42.74;21.64
30730;BME280;17476;48.458;7.928;2022-07-03T11:54:33;100035.91;;;43.25;20.54
30730;BME280;17476;48.458;7.928;2022-07-03T11:57:14;100028.59;;;42.95;17.96
30730;BME280;17476;48.458;7.928;2022-07-03T11:59:40;100041.66;;;42.65;18.97
30730;BME280;17476;48.458;7.928;2022-07-03T12:02:06;100035.97;;;40.88;18.93
30730;BME280;17476;48.458;7.928;2022-07-03T12:04:32;100034.13;;;40.92;19.30
30730;BME280;17476;48.458;7.928;2022-07-03T12:07:00;100029.28;;;41.31;21.10
30730;BME280;17476;48.458;7.928;2022-07-03T12:09:35;100021.47;;;41.10;19.18
30730;BME280;17476;48.458;7.928;2022-07-03T12:12:06;100025.94;;;40.15;20.80
30730;BME280;17476;48.458;7.928;2022-07-03T12:14:46;100027.19;;;39.82;21.99
30730;BME280;17476;48.458;7.928;2022-07-03T12:19:58;100023.47;;;40.29;21.70
30730;BME280;17476;48.458;7.928;2022-07-03T12:22:34;100018.59;;;41.26;22.49
30730;BME280;17476;48.458;7.928;2022-07-03T12:25:06;100017.75;;;40.37;20.16
30730;BME280;17476;48.458;7.928;2022-07-03T12:27:39;100019.38;;;41.27;22.75
30730;BME280;17476;48.458;7.928;2022-07-03T12:30:11;100019.53;;;41.90;19.71
30730;BME280;17476;48.458;7.928;2022-07-03T12:32:38;100013.94;;;42.47;19.06
30730;BME280;17476;48.458;7.928;2022-07-03T12:35:05;100008.41;;;42.10;19.18
30730;BME280;17476;48.458;7.928;2022-07-03T12:37:40;100011.09;;;41.46;21.42
30730;BME280;17476;48.458;7.928;2022-07-03T12:40:08;100011.22;;;40.23;21.04
30730;BME280;17476;48.458;7.928;2022-07-03T12:42:52;99997.63;;;40.69;19.85
30730;BME280;17476;48.458;7.928;2022-07-03T12:45:25;99996.97;;;41.25;21.56
30730;BME280;17476;48.458;7.928;2022-07-03T12:48:03;99990.13;;;42.21;19.36
30730;BME280;17476;48.458;7.928;2022-07-03T12:50:51;99986.09;;;42.93;20.75
30730;BME280;17476;48.458;7.928;2022-07-03T12:53:28;99985.22;;;41.51;19.17
30730;BME280;17476;48.458;7.928;2022-07-03T12:55:54;99986.00;;;41.25;19.44
30730;BME280;17476;48.458;7.928;2022-07-03T12:58:24;99980.41;;;38.89;20.09
30730;BME280;17476;48.458;7.928;2022-07-03T13:03:54;99977.44;;;37.82;22.30
30730;BME280;17476;48.458;7.928;2022-07-03T13:06:21;99975.72;;;38.17;24.25
30730;BME280;17476;48.458;7.928;2022-07-03T13:08:56;99971.78;;;37.50;22.25
30730;BME280;17476;48.458;7.928;2022-07-03T13:11:39;99965.16;;;38.16;21.91
30730;BME280;17476;48.458;7.928;2022-07-03T13:19:05;99969.31;;;37.97;23.51
30730;BME280;17476;48.458;7.928;2022-07-03T13:21:31;99963.72;;;37.29;24.85
30730;BME280;17476;48.458;7.928;2022-07-03T13:24:00;99962.50;;;37.91;22.37
30730;BME280;17476;48.458;7.928;2022-07-03T13:26:26;99954.75;;;37.93;21.76
30730;BME280;17476;48.458;7.928;2022-07-03T13:28:51;99960.66;;;38.36;21.75
30730;BME280;17476;48.458;7.928;2022-07-03T13:31:17;99947.88;;;39.70;23.18
30730;BME280;17476;48.458;7.928;2022-07-03T13:33:43;99953.97;;;39.98;22.05
30730;BME280;17476;48.458;7.928;2022-07-03T13:36:09;99950.38;;;40.56;23.02
30730;BME280;17476;48.458;7.928;2022-07-03T13:38:34;99952.59;;;39.89;20.55
30730;BME280;17476;48.458;7.928;2022-07-03T13:41:00;99952.84;;;39.13;21.63
30730;BME280;17476;48.458;7.928;2022-07-03T13:43:26;99943.22;;;38.88;21.30
30730;BME280;17476;48.458;7.928;2022-07-03T13:45:52;99943.25;;;37.48;22.44
30730;BME280;17476;48.458;7.928;2022-07-03T13:48:17;99955.03;;;37.64;23.77
30730;BME280;17476;48.458;7.928;2022-07-03T13:50:43;99948.28;;;38.86;24.18
30730;BME280;17476;48.458;7.928;2022-07-03T13:53:09;99945.16;;;39.89;23.75
30730;BME280;17476;48.458;7.928;2022-07-03T13:55:35;99940.94;;;40.53;22.71
30730;BME280;17476;48.458;7.928;2022-07-03T13:58:01;99935.88;;;41.01;22.46
30730;BME280;17476;48.458;7.928;2022-07-03T14:00:32;99938.09;;;40.92;19.38
30730;BME280;17476;48.458;7.928;2022-07-03T14:02:57;99937.53;;;39.98;20.66
30730;BME280;17476;48.458;7.928;2022-07-03T14:05:23;99938.72;;;39.27;22.02
30730;BME280;17476;48.458;7.928;2022-07-03T14:07:49;99940.00;;;38.38;22.04
30730;BME280;17476;48.458;7.928;2022-07-03T14:10:15;99940.00;;;38.38;22.71
30730;BME280;17476;48.458;7.928;2022-07-03T14:12:41;99933.81;;;38.85;24.46
30730;BME280;17476;48.458;7.928;2022-07-03T14:15:08;99929.81;;;39.30;21.04
30730;BME280;17476;48.458;7.928;2022-07-03T14:17:33;99925.41;;;39.61;22.79
30730;BME280;17476;48.458;7.928;2022-07-03T14:19:59;99927.50;;;39.67;21.45
30730;BME280;17476;48.458;7.928;2022-07-03T14:22:25;99921.03;;;39.40;20.92
30730;BME280;17476;48.458;7.928;2022-07-03T14:24:52;99926.41;;;39.17;23.53